createdAt,value
2018-07-20T00:00:26.435Z,4.90
2018-07-20T00:02:54.644Z,4.37
2018-07-20T00:05:22.843Z,6.10
2018-07-20T00:07:51.009Z,4.27
2018-07-20T00:10:19.211Z,4.97
2018-07-20T00:12:47.383Z,6.40
2018-07-20T00:15:15.362Z,5.20
2018-07-20T00:17:43.527Z,7.10
2018-07-20T00:20:11.695Z,6.40
2018-07-20T00:22:39.630Z,5.27
2018-07-20T00:25:08.050Z,5.27
2018-07-20T00:27:35.995Z,4.50
2018-07-20T00:30:04.468Z,5.90
2018-07-20T00:32:32.649Z,6.40
2018-07-20T00:35:00.817Z,5.07
2018-07-20T00:37:28.983Z,7.10
2018-07-20T00:39:57.258Z,5.70
2018-07-20T00:42:25.560Z,5.73
2018-07-20T00:44:53.494Z,6.50
2018-07-20T00:47:21.655Z,8.57
2018-07-20T00:49:49.836Z,5.67
2018-07-20T00:52:18.021Z,6.03
2018-07-20T00:54:46.204Z,5.93
2018-07-20T00:57:14.395Z,5.43
2018-07-20T00:59:42.370Z,6.07
2018-07-20T01:02:10.325Z,6.67
2018-07-20T01:04:38.500Z,6.57
2018-07-20T01:07:06.664Z,6.10
2018-07-20T01:09:34.847Z,8.10
2018-07-20T01:12:02.801Z,8.23
2018-07-20T01:14:30.976Z,7.97
2018-07-20T01:16:59.166Z,6.27
2018-07-20T01:19:27.345Z,6.77
2018-07-20T01:21:55.330Z,7.77
2018-07-20T01:24:24.471Z,7.93
2018-07-20T01:26:52.640Z,8.50
2018-07-20T01:29:21.074Z,9.03
2018-07-20T01:31:49.262Z,7.00
2018-07-20T01:34:17.472Z,9.70
2018-07-20T01:36:45.651Z,6.80
2018-07-20T01:39:13.811Z,6.80
2018-07-20T01:41:42.008Z,7.80
2018-07-20T01:44:10.182Z,8.13
2018-07-20T01:46:38.411Z,7.80
2018-07-20T01:49:06.696Z,7.20
2018-07-20T01:51:34.880Z,8.83
2018-07-20T01:54:04.164Z,12.93
2018-07-20T01:56:32.344Z,12.37
2018-07-20T01:59:00.519Z,6.80
2018-07-20T02:01:28.692Z,6.87
2018-07-20T02:03:56.884Z,11.50
2018-07-20T02:06:25.079Z,8.20
2018-07-20T02:08:53.467Z,6.87
2018-07-20T02:11:21.400Z,8.00
2018-07-20T02:13:49.567Z,10.50
2018-07-20T02:16:17.748Z,7.27
2018-07-20T02:18:45.924Z,6.83
2018-07-20T02:21:14.108Z,6.27
2018-07-20T02:23:42.292Z,11.80
2018-07-20T02:26:10.463Z,8.83
2018-07-20T02:28:38.664Z,7.27
2018-07-20T02:31:06.887Z,8.27
2018-07-20T02:33:35.083Z,6.80
2018-07-20T02:36:03.520Z,7.67
2018-07-20T02:38:31.700Z,8.93
2018-07-20T02:40:59.895Z,8.30
2018-07-20T02:43:28.092Z,7.40
2018-07-20T02:45:56.271Z,14.87
2018-07-20T02:48:24.212Z,8.87
2018-07-20T02:50:52.392Z,7.83
2018-07-20T02:53:20.575Z,7.10
2018-07-20T02:55:48.760Z,11.47
2018-07-20T02:58:17.162Z,8.60
2018-07-20T03:00:45.342Z,7.67
2018-07-20T03:03:13.540Z,11.57
2018-07-20T03:05:41.737Z,7.40
2018-07-20T03:08:09.903Z,7.20
2018-07-20T03:10:38.074Z,7.03
2018-07-20T03:13:06.776Z,8.80
2018-07-20T03:15:34.959Z,7.83
2018-07-20T03:18:03.156Z,10.67
2018-07-20T03:20:31.332Z,8.53
2018-07-20T03:22:59.595Z,7.10
2018-07-20T03:25:27.579Z,9.43
2018-07-20T03:27:55.755Z,6.80
2018-07-20T03:30:24.130Z,8.83
2018-07-20T03:32:52.588Z,9.50
2018-07-20T03:35:20.765Z,7.50
2018-07-20T03:37:48.750Z,7.20
2018-07-20T03:40:16.942Z,7.73
2018-07-20T03:42:45.129Z,11.17
2018-07-20T03:45:13.428Z,10.07
2018-07-20T03:47:41.597Z,10.13
2018-07-20T03:50:09.783Z,7.90
2018-07-20T03:52:37.959Z,8.93
2018-07-20T03:55:06.145Z,7.30
2018-07-20T03:57:34.327Z,11.37
2018-07-20T04:00:02.376Z,8.57
2018-07-20T04:02:30.622Z,7.73
2018-07-20T04:04:58.769Z,9.90
2018-07-20T04:07:26.934Z,6.60
2018-07-20T04:09:55.102Z,8.10
2018-07-20T04:12:23.800Z,8.47
2018-07-20T04:14:52.008Z,7.60
2018-07-20T04:17:20.172Z,9.73
2018-07-20T04:19:48.519Z,9.17
2018-07-20T04:22:16.695Z,7.80
2018-07-20T04:24:44.894Z,5.73
2018-07-20T04:27:13.060Z,7.40
2018-07-20T04:29:41.835Z,6.90
2018-07-20T04:32:10.024Z,6.70
2018-07-20T04:34:38.303Z,7.57
2018-07-20T04:37:06.472Z,7.77
2018-07-20T04:39:35.169Z,9.20
2018-07-20T04:42:04.361Z,6.90
2018-07-20T04:44:32.569Z,9.30
2018-07-20T04:47:00.740Z,13.33
2018-07-20T04:49:28.907Z,7.87
2018-07-20T04:51:57.149Z,7.37
2018-07-20T04:54:25.360Z,12.87
2018-07-20T04:56:53.521Z,7.23
2018-07-20T04:59:21.855Z,6.10
2018-07-20T05:01:50.041Z,6.77
2018-07-20T05:04:18.235Z,7.47
2018-07-20T05:06:46.435Z,6.73
2018-07-20T05:09:14.612Z,6.27
2018-07-20T05:11:42.800Z,8.30
2018-07-20T05:14:11.367Z,6.87
2018-07-20T05:16:39.554Z,8.90
2018-07-20T05:19:07.732Z,7.03
2018-07-20T05:21:35.712Z,7.93
2018-07-20T05:24:03.659Z,6.60
2018-07-20T05:26:31.828Z,7.50
2018-07-20T05:29:00.335Z,6.40
2018-07-20T05:31:28.287Z,6.00
2018-07-20T05:33:56.464Z,7.77
2018-07-20T05:36:24.651Z,7.90
2018-07-20T05:38:52.820Z,5.70
2018-07-20T05:41:20.820Z,5.40
2018-07-20T05:43:49.160Z,7.13
2018-07-20T05:46:17.458Z,9.80
2018-07-20T05:48:45.672Z,7.17
2018-07-20T05:51:14.032Z,7.20
2018-07-20T05:53:42.304Z,5.30
2018-07-20T05:56:10.479Z,8.07
2018-07-20T05:58:38.649Z,6.00
2018-07-20T06:01:06.928Z,6.43
2018-07-20T06:03:35.098Z,5.93
2018-07-20T06:06:03.355Z,9.77
2018-07-20T06:08:31.531Z,6.80
2018-07-20T06:10:59.787Z,6.73
2018-07-20T06:13:27.793Z,5.20
2018-07-20T06:15:55.948Z,9.67
2018-07-20T06:18:24.147Z,10.30
2018-07-20T06:20:52.298Z,7.70
2018-07-20T06:23:20.487Z,5.60
2018-07-20T06:25:48.663Z,5.13
2018-07-20T06:28:16.821Z,10.03
2018-07-20T06:30:45.005Z,7.00
2018-07-20T06:33:13.179Z,5.40
2018-07-20T06:35:41.350Z,6.07
2018-07-20T06:38:09.504Z,7.10
2018-07-20T06:40:37.691Z,5.10
2018-07-20T06:43:06.024Z,6.10
2018-07-20T06:45:34.232Z,6.00
2018-07-20T06:48:02.472Z,7.00
2018-07-20T06:50:30.640Z,6.53
2018-07-20T06:52:59.199Z,6.63
2018-07-20T06:55:27.373Z,6.83
2018-07-20T06:57:55.531Z,6.47
2018-07-20T07:00:23.693Z,6.13
2018-07-20T07:02:51.887Z,8.67
2018-07-20T07:05:20.076Z,7.40
2018-07-20T07:07:48.240Z,5.50
2018-07-20T07:10:16.703Z,6.80
2018-07-20T07:12:44.872Z,11.90
2018-07-20T07:15:13.055Z,4.73
2018-07-20T07:17:41.315Z,5.20
2018-07-20T07:20:09.537Z,7.20
2018-07-20T07:22:37.715Z,8.17
2018-07-20T07:25:05.891Z,5.30
2018-07-20T07:27:34.102Z,6.47
2018-07-20T07:30:02.247Z,6.43
2018-07-20T07:32:30.414Z,7.77
2018-07-20T07:34:58.640Z,6.47
2018-07-20T07:37:26.805Z,4.93
2018-07-20T07:39:54.972Z,9.73
2018-07-20T07:42:23.163Z,6.70
2018-07-20T07:44:51.344Z,6.50
2018-07-20T07:47:19.576Z,9.47
2018-07-20T07:49:53.295Z,7.40
2018-07-20T07:52:24.006Z,8.23
2018-07-20T07:54:54.691Z,6.20
2018-07-20T07:57:26.340Z,7.50
2018-07-20T07:59:57.756Z,8.80
2018-07-20T08:02:30.767Z,5.03
2018-07-20T08:05:01.843Z,6.43
2018-07-20T08:07:30.561Z,8.73
2018-07-20T08:09:59.447Z,6.13
2018-07-20T08:12:28.479Z,6.73
2018-07-20T08:14:59.492Z,11.70
2018-07-20T08:17:28.640Z,9.50
2018-07-20T08:19:57.601Z,6.03
2018-07-20T08:22:28.828Z,8.50
2018-07-20T08:24:58.109Z,9.47
2018-07-20T08:27:28.240Z,4.20
2018-07-20T08:30:00.950Z,7.73
2018-07-20T08:32:31.282Z,6.80
2018-07-20T08:35:01.505Z,8.77
2018-07-20T08:37:30.981Z,7.13
2018-07-20T08:40:05.074Z,4.63
2018-07-20T08:42:35.766Z,4.47
2018-07-20T08:45:05.656Z,3.83
2018-07-20T08:47:34.988Z,5.80
2018-07-20T08:50:07.803Z,5.03
2018-07-20T08:52:37.127Z,2.90
2018-07-20T08:55:09.637Z,4.83
2018-07-20T08:57:38.393Z,3.83
2018-07-20T09:00:09.248Z,6.47
2018-07-20T09:02:39.085Z,6.07
2018-07-20T09:05:08.594Z,5.23
2018-07-20T09:07:39.220Z,4.97
2018-07-20T09:10:09.762Z,2.60
2018-07-20T09:12:39.541Z,3.93
2018-07-20T09:15:09.587Z,3.00
2018-07-20T09:17:40.013Z,2.60
2018-07-20T09:20:13.750Z,2.97
2018-07-20T09:22:43.021Z,4.17
2018-07-20T09:25:13.092Z,4.80
2018-07-20T09:27:44.270Z,3.17
2018-07-20T09:30:13.511Z,2.93
2018-07-20T09:32:41.483Z,2.47
2018-07-20T09:35:09.677Z,4.07
2018-07-20T09:37:37.872Z,4.70
2018-07-20T09:40:06.655Z,3.57
2018-07-20T09:42:34.812Z,3.70
2018-07-20T09:45:02.991Z,4.00
2018-07-20T09:47:31.160Z,4.70
2018-07-20T09:49:59.328Z,4.07
2018-07-20T09:52:27.520Z,5.40
2018-07-20T09:54:55.719Z,2.50
2018-07-20T09:57:24.538Z,2.77
2018-07-20T09:59:52.554Z,3.40
2018-07-20T10:02:20.660Z,3.37
2018-07-20T10:04:48.831Z,8.70
2018-07-20T10:07:17.020Z,5.10
2018-07-20T10:09:45.003Z,2.90
2018-07-20T10:12:12.975Z,2.90
2018-07-20T10:14:41.178Z,3.00
2018-07-20T10:17:09.340Z,2.97
2018-07-20T10:19:37.560Z,3.13
2018-07-20T10:22:06.155Z,3.97
2018-07-20T10:24:34.328Z,6.20
2018-07-20T10:27:02.516Z,3.47
2018-07-20T10:29:30.467Z,5.10
2018-07-20T10:31:58.404Z,4.00
2018-07-20T10:34:26.592Z,2.57
2018-07-20T10:36:54.798Z,3.03
2018-07-20T10:39:23.648Z,3.37
2018-07-20T10:41:52.169Z,3.60
2018-07-20T10:44:20.267Z,5.00
2018-07-20T10:46:48.508Z,2.60
2018-07-20T10:49:16.705Z,2.80
2018-07-20T10:51:44.923Z,5.03
2018-07-20T10:54:13.091Z,2.93
2018-07-20T10:56:41.259Z,2.77
2018-07-20T10:59:09.437Z,2.73
2018-07-20T11:01:37.645Z,2.73
2018-07-20T11:04:06.031Z,4.23
2018-07-20T11:06:34.192Z,2.20
2018-07-20T11:09:02.420Z,3.10
2018-07-20T11:11:30.599Z,4.13
2018-07-20T11:13:58.784Z,4.30
2018-07-20T11:16:26.955Z,4.17
2018-07-20T11:18:55.141Z,4.60
2018-07-20T11:21:23.384Z,3.13
2018-07-20T11:23:51.567Z,9.03
2018-07-20T11:26:19.732Z,3.20
2018-07-20T11:28:47.916Z,3.10
2018-07-20T11:31:16.075Z,4.77
2018-07-20T11:33:44.252Z,4.53
2018-07-20T11:36:12.424Z,2.27
2018-07-20T11:38:40.599Z,3.77
2018-07-20T11:41:08.975Z,4.17
2018-07-20T11:43:37.180Z,3.30
2018-07-20T11:46:05.524Z,2.60
2018-07-20T11:48:33.695Z,2.57
2018-07-20T11:51:01.888Z,2.90
2018-07-20T11:53:30.104Z,5.73
2018-07-20T11:55:58.098Z,3.23
2018-07-20T11:58:26.289Z,2.50
2018-07-20T12:00:54.461Z,2.53
2018-07-20T12:03:22.671Z,3.90
2018-07-20T12:05:50.823Z,5.07
2018-07-20T12:08:19.001Z,6.70
2018-07-20T12:10:47.167Z,4.50
2018-07-20T12:13:15.352Z,5.23
2018-07-20T12:15:43.629Z,4.67
2018-07-20T12:18:11.781Z,4.97
2018-07-20T12:20:39.934Z,3.80
2018-07-20T12:23:08.156Z,3.70
2018-07-20T12:25:36.320Z,4.30
2018-07-20T12:28:04.581Z,2.43
2018-07-20T12:30:32.747Z,4.10
2018-07-20T12:33:00.924Z,3.57
2018-07-20T12:35:29.112Z,2.93
2018-07-20T12:37:57.272Z,2.93
2018-07-20T12:40:25.433Z,4.40
2018-07-20T12:42:54.216Z,2.53
2018-07-20T12:45:22.376Z,5.63
2018-07-20T12:47:50.564Z,3.77
2018-07-20T12:50:18.787Z,3.87
2018-07-20T12:52:46.928Z,3.47
2018-07-20T12:55:15.111Z,3.40
2018-07-20T12:57:43.304Z,3.90
2018-07-20T13:00:11.464Z,4.17
2018-07-20T13:02:39.640Z,4.17
2018-07-20T13:05:07.886Z,2.43
2018-07-20T13:07:36.068Z,3.60
2018-07-20T13:10:04.809Z,5.83
2018-07-20T13:12:32.760Z,5.10
2018-07-20T13:15:00.944Z,2.30
2018-07-20T13:17:29.131Z,3.83
2018-07-20T13:19:57.068Z,3.17
2018-07-20T13:22:25.243Z,3.33
2018-07-20T13:24:53.507Z,2.90
2018-07-20T13:27:21.757Z,4.57
2018-07-20T13:29:49.930Z,8.80
2018-07-20T13:32:18.106Z,2.47
2018-07-20T13:34:46.262Z,1.70
2018-07-20T13:37:14.451Z,1.93
2018-07-20T13:39:42.670Z,3.03
2018-07-20T13:42:10.783Z,2.30
2018-07-20T13:44:38.971Z,3.67
2018-07-20T13:47:07.223Z,2.53
2018-07-20T13:49:35.404Z,5.67
2018-07-20T13:52:03.563Z,3.07
2018-07-20T13:54:31.523Z,2.10
2018-07-20T13:56:59.485Z,5.10
2018-07-20T13:59:27.644Z,2.73
2018-07-20T14:01:55.847Z,1.93
2018-07-20T14:04:24.344Z,3.37
2018-07-20T14:06:52.518Z,6.10
2018-07-20T14:09:21.733Z,7.57
2018-07-20T14:11:49.900Z,2.40
2018-07-20T14:14:18.075Z,5.63
2018-07-20T14:16:46.304Z,2.33
2018-07-20T14:19:14.427Z,2.23
2018-07-20T14:21:42.786Z,2.53
2018-07-20T14:24:11.076Z,4.70
2018-07-20T14:26:39.330Z,2.27
2018-07-20T14:29:07.513Z,2.27
2018-07-20T14:31:35.749Z,2.97
2018-07-20T14:34:03.842Z,2.10
2018-07-20T14:36:31.777Z,7.97
2018-07-20T14:38:59.928Z,5.10
2018-07-20T14:41:28.099Z,3.57
2018-07-20T14:43:56.307Z,2.50
2018-07-20T14:46:25.089Z,1.90
2018-07-20T14:48:53.283Z,1.97
2018-07-20T14:51:21.235Z,3.13
2018-07-20T14:53:49.424Z,3.27
2018-07-20T14:56:17.358Z,5.57
2018-07-20T14:58:45.532Z,4.23
2018-07-20T15:01:13.701Z,2.00
2018-07-20T15:03:41.868Z,3.00
2018-07-20T15:06:10.039Z,3.80
2018-07-20T15:08:38.249Z,5.33
2018-07-20T15:11:06.475Z,3.80
2018-07-20T15:13:34.649Z,4.17
2018-07-20T15:16:02.979Z,1.87
2018-07-20T15:18:30.923Z,3.70
2018-07-20T15:20:59.848Z,2.67
2018-07-20T15:23:29.117Z,2.60
2018-07-20T15:25:57.348Z,1.73
2018-07-20T15:28:25.553Z,2.73
2018-07-20T15:30:53.725Z,1.93
2018-07-20T15:33:21.924Z,1.90
2018-07-20T15:35:50.088Z,1.40
2018-07-20T15:38:18.271Z,10.20
2018-07-20T15:40:46.462Z,2.13
2018-07-20T15:43:14.423Z,2.13
2018-07-20T15:45:51.882Z,2.90
2018-07-20T15:48:11.283Z,3.33
2018-07-20T15:50:39.456Z,2.43
2018-07-20T15:53:37.360Z,3.80
2018-07-20T15:55:35.763Z,2.20
2018-07-20T15:58:03.971Z,1.47
2018-07-20T16:00:32.155Z,2.10
2018-07-20T16:03:00.178Z,2.30
2018-07-20T16:05:28.375Z,3.13
2018-07-20T16:07:56.551Z,2.83
2018-07-20T16:10:25.215Z,3.33
2018-07-20T16:12:53.406Z,4.00
2018-07-20T16:15:21.589Z,3.37
2018-07-20T16:17:49.772Z,1.73
2018-07-20T16:20:17.956Z,1.90
2018-07-20T16:22:45.929Z,3.33
2018-07-20T16:25:14.083Z,2.70
2018-07-20T16:27:42.239Z,2.33
2018-07-20T16:30:10.420Z,1.80
2018-07-20T16:32:38.575Z,3.50
2018-07-20T16:35:07.040Z,2.63
2018-07-20T16:37:35.227Z,2.93
2018-07-20T16:40:03.421Z,4.57
2018-07-20T16:42:31.623Z,2.23
2018-07-20T16:44:59.883Z,2.20
2018-07-20T16:47:28.037Z,6.37
2018-07-20T16:49:56.297Z,3.03
2018-07-20T16:52:24.508Z,3.47
2018-07-20T16:54:52.486Z,4.50
2018-07-20T16:57:20.463Z,4.13
2018-07-20T16:59:48.670Z,2.10
2018-07-20T17:02:16.849Z,3.67
2018-07-20T17:04:45.028Z,2.13
2018-07-20T17:07:13.200Z,5.57
2018-07-20T17:09:41.356Z,1.83
2018-07-20T17:12:09.531Z,2.00
2018-07-20T17:14:37.822Z,5.80
2018-07-20T17:17:06.023Z,2.03
2018-07-20T17:19:34.216Z,2.17
2018-07-20T17:22:02.200Z,2.17
2018-07-20T17:24:30.377Z,3.23
2018-07-20T17:26:58.573Z,2.10
2018-07-20T17:29:26.770Z,3.13
2018-07-20T17:31:54.939Z,2.77
2018-07-20T17:34:24.008Z,4.60
2018-07-20T17:36:52.179Z,2.73
2018-07-20T17:39:20.476Z,7.30
2018-07-20T17:41:48.656Z,2.13
2018-07-20T17:44:16.827Z,6.23
2018-07-20T17:46:44.991Z,3.10
2018-07-20T17:49:13.175Z,2.53
2018-07-20T17:51:41.339Z,2.10
2018-07-20T17:54:09.542Z,3.00
2018-07-20T17:56:37.691Z,2.70
2018-07-20T17:59:05.868Z,3.10
2018-07-20T18:01:34.200Z,3.70
2018-07-20T18:04:02.468Z,3.47
2018-07-20T18:06:30.676Z,4.60
2018-07-20T18:08:58.847Z,2.07
2018-07-20T18:11:27.042Z,3.03
2018-07-20T18:13:55.247Z,2.70
2018-07-20T18:16:23.441Z,2.20
2018-07-20T18:18:51.368Z,2.63
2018-07-20T18:21:19.548Z,4.93
2018-07-20T18:23:47.755Z,3.83
2018-07-20T18:26:15.684Z,2.23
2018-07-20T18:28:43.866Z,4.23
2018-07-20T18:31:12.051Z,2.33
2018-07-20T18:33:40.243Z,3.03
2018-07-20T18:36:08.468Z,3.70
2018-07-20T18:38:36.642Z,2.63
2018-07-20T18:41:04.837Z,2.77
2018-07-20T18:43:33.012Z,3.77
2018-07-20T18:46:01.208Z,6.47
2018-07-20T18:48:29.164Z,2.50
2018-07-20T18:50:57.324Z,2.70
2018-07-20T18:53:25.524Z,2.57
2018-07-20T18:55:53.488Z,5.07
2018-07-20T18:58:21.424Z,5.37
2018-07-20T19:00:49.604Z,2.73
2018-07-20T19:03:17.804Z,2.87
2018-07-20T19:05:45.748Z,3.20
2018-07-20T19:08:13.940Z,6.13
2018-07-20T19:10:41.863Z,3.00
2018-07-20T19:13:10.062Z,3.20
2018-07-20T19:15:38.271Z,4.10
2018-07-20T19:18:06.199Z,5.37
2018-07-20T19:20:34.390Z,3.33
2018-07-20T19:23:02.563Z,2.10
2018-07-20T19:25:30.742Z,2.90
2018-07-20T19:27:58.943Z,3.30
2018-07-20T19:30:26.976Z,4.07
2018-07-20T19:32:55.194Z,2.07
2018-07-20T19:35:23.363Z,6.67
2018-07-20T19:37:51.686Z,2.67
2018-07-20T19:40:19.891Z,3.33
2018-07-20T19:42:48.072Z,2.10
2018-07-20T19:45:16.010Z,3.53
2018-07-20T19:47:44.178Z,3.23
2018-07-20T19:50:12.357Z,6.47
2018-07-20T19:52:40.560Z,2.53
2018-07-20T19:55:08.515Z,1.70
2018-07-20T19:57:36.903Z,4.00
2018-07-20T20:00:07.456Z,1.60
2018-07-20T20:02:35.624Z,3.90
2018-07-20T20:05:03.874Z,6.80
2018-07-20T20:07:32.084Z,4.53
2018-07-20T20:10:00.252Z,3.67
2018-07-20T20:12:28.451Z,4.20
2018-07-20T20:14:56.641Z,2.43
2018-07-20T20:17:24.880Z,2.03
2018-07-20T20:19:53.060Z,2.13
2018-07-20T20:22:21.275Z,2.63
2018-07-20T20:24:49.458Z,4.07
2018-07-20T20:27:17.661Z,5.97
2018-07-20T20:29:45.839Z,2.80
2018-07-20T20:32:14.030Z,2.17
2018-07-20T20:34:42.298Z,2.33
2018-07-20T20:37:10.526Z,3.00
2018-07-20T20:39:38.704Z,2.80
2018-07-20T20:42:06.903Z,3.53
2018-07-20T20:44:35.197Z,3.13
2018-07-20T20:47:03.382Z,2.17
2018-07-20T20:49:31.594Z,5.37
2018-07-20T20:51:59.779Z,4.10
2018-07-20T20:54:27.752Z,4.70
2018-07-20T20:56:55.712Z,11.67
2018-07-20T20:59:24.376Z,3.10
2018-07-20T21:01:52.576Z,4.43
2018-07-20T21:04:20.597Z,4.93
2018-07-20T21:06:48.526Z,5.23
2018-07-20T21:09:16.740Z,2.70
2018-07-20T21:11:44.934Z,5.77
2018-07-20T21:14:13.119Z,3.33
2018-07-20T21:16:41.295Z,3.60
2018-07-20T21:19:09.500Z,4.00
2018-07-20T21:21:37.708Z,8.30
2018-07-20T21:24:06.549Z,3.90
2018-07-20T21:26:34.539Z,5.83
2018-07-20T21:29:02.756Z,5.63
2018-07-20T21:31:30.947Z,4.97
2018-07-20T21:33:59.141Z,3.07
2018-07-20T21:36:27.096Z,5.27
2018-07-20T21:38:55.297Z,5.50
2018-07-20T21:41:24.098Z,4.63
2018-07-20T21:43:52.273Z,5.73
2018-07-20T21:46:20.459Z,7.20
2018-07-20T21:48:48.710Z,5.10
2018-07-20T21:51:16.865Z,5.23
2018-07-20T21:53:44.886Z,3.83
2018-07-20T21:56:13.072Z,6.10
2018-07-20T21:58:41.249Z,7.70
2018-07-20T22:01:09.440Z,4.07
2018-07-20T22:03:37.673Z,6.67
2018-07-20T22:06:05.867Z,8.27
2018-07-20T22:08:34.054Z,5.20
2018-07-20T22:11:02.258Z,10.07
2018-07-20T22:13:30.260Z,6.20
2018-07-20T22:15:58.469Z,4.80
2018-07-20T22:18:26.676Z,11.33
2018-07-20T22:20:54.643Z,8.27
2018-07-20T22:23:23.729Z,6.00
2018-07-20T22:25:51.860Z,5.30
2018-07-20T22:28:20.040Z,5.00
2018-07-20T22:30:48.251Z,6.97
2018-07-20T22:33:16.198Z,7.37
2018-07-20T22:35:44.399Z,9.50
2018-07-20T22:38:12.580Z,5.33
2018-07-20T22:40:40.806Z,7.53
2018-07-20T22:43:09.012Z,8.63
2018-07-20T22:45:36.974Z,6.20
2018-07-20T22:48:04.929Z,5.00
2018-07-20T22:50:33.102Z,6.23
2018-07-20T22:53:01.344Z,6.03
2018-07-20T22:55:29.525Z,4.50
2018-07-20T22:57:57.708Z,3.27
2018-07-20T23:00:25.886Z,7.90
2018-07-20T23:02:54.119Z,7.00
2018-07-20T23:05:22.261Z,3.83
2018-07-20T23:07:50.480Z,5.40
2018-07-20T23:10:18.756Z,4.67
2018-07-20T23:12:46.951Z,6.63
2018-07-20T23:15:15.120Z,4.93
2018-07-20T23:17:43.300Z,4.77
2018-07-20T23:20:11.478Z,3.80
2018-07-20T23:22:39.795Z,7.93
2018-07-20T23:25:07.784Z,3.70
2018-07-20T23:27:36.091Z,6.43
2018-07-20T23:30:04.655Z,6.87
2018-07-20T23:32:32.951Z,4.03
2018-07-20T23:35:01.135Z,4.03
2018-07-20T23:37:29.382Z,5.30
2018-07-20T23:39:57.579Z,3.30
2018-07-20T23:42:25.776Z,3.83
2018-07-20T23:44:53.964Z,2.73
2018-07-20T23:47:21.906Z,5.80
2018-07-20T23:49:50.093Z,8.20
2018-07-20T23:52:18.313Z,6.20
2018-07-20T23:54:46.499Z,3.87
2018-07-20T23:57:14.667Z,4.90
2018-07-20T23:59:42.894Z,3.40
